Time;durP1;ratioP1;P1;durP2;ratioP2;P2;SDS_P1;SDS_P2;PMS_P1;PMS_P2;Temp;Humidity;BMP_temperature;BMP_pressure;BME280_temperature;BME280_humidity;BME280_pressure;Samples;Min_cycle;Max_cycle;Signal;HPM_P1;HPM_P2
2023/01/05 00:01:08;;;;;;;17.80;3.57;;;8.40;99.90;;;;;;5031999;28;20907;-70
2023/01/05 00:03:35;;;;;;;10.07;3.00;;;8.40;99.90;;;;;;5032973;28;20179;-71
2023/01/05 00:06:03;;;;;;;7.43;3.10;;;8.40;99.90;;;;;;5030756;28;20453;-70
2023/01/05 00:08:29;;;;;;;11.63;2.53;;;8.30;99.90;;;;;;5032914;28;20895;-71
2023/01/05 00:24:39;;;;;;;7.03;3.40;;;8.20;99.90;;;;;;5032142;28;20480;-74
2023/01/05 00:27:05;;;;;;;9.27;3.47;;;8.20;99.90;;;;;;5032476;28;20902;-72
2023/01/05 00:29:31;;;;;;;10.60;2.40;;;8.20;99.90;;;;;;5032856;28;20175;-70
2023/01/05 00:31:57;;;;;;;15.70;3.00;;;8.20;99.90;;;;;;5032801;28;20780;-70
2023/01/05 00:34:22;;;;;;;11.07;2.30;;;8.10;99.90;;;;;;5032161;28;20568;-70
2023/01/05 00:36:48;;;;;;;4.67;2.97;;;8.10;99.90;;;;;;5032642;28;20402;-72
2023/01/05 00:39:14;;;;;;;8.13;2.53;;;8.20;99.90;;;;;;5032717;28;20168;-71
2023/01/05 00:41:39;;;;;;;14.40;3.40;;;8.20;99.90;;;;;;5032812;28;20502;-70
2023/01/05 00:44:05;;;;;;;9.10;3.17;;;8.20;99.90;;;;;;5032375;28;20194;-73
2023/01/05 00:46:31;;;;;;;8.07;2.83;;;8.20;99.90;;;;;;5031654;28;20202;-72
2023/01/05 00:48:57;;;;;;;10.73;2.83;;;8.20;99.90;;;;;;5035371;28;20537;-73
2023/01/05 00:51:22;;;;;;;9.47;2.30;;;8.20;99.90;;;;;;5036492;28;20179;-69
2023/01/05 00:53:48;;;;;;;3.07;1.80;;;8.20;99.90;;;;;;5035165;28;20661;-68
2023/01/05 00:56:14;;;;;;;13.80;2.70;;;8.20;80.20;;;;;;5035738;28;20195;-69
2023/01/05 00:58:39;;;;;;;5.43;2.30;;;8.20;69.90;;;;;;5036406;28;20175;-73
2023/01/05 01:01:10;;;;;;;8.07;2.80;;;8.20;64.50;;;;;;5036329;28;20832;-72
2023/01/05 01:03:36;;;;;;;7.83;4.40;;;8.20;66.50;;;;;;5035692;28;20179;-70
2023/01/05 01:06:01;;;;;;;8.23;2.00;;;8.20;41.00;;;;;;5035492;28;20424;-72
2023/01/05 01:08:27;;;;;;;9.13;2.43;;;8.20;23.80;;;;;;5036368;28;20258;-72
2023/01/05 01:10:53;;;;;;;6.70;2.20;;;8.20;24.70;;;;;;5036094;28;20176;-70
2023/01/05 01:13:18;;;;;;;13.53;2.70;;;8.20;20.00;;;;;;5035865;28;20202;-70
2023/01/05 01:15:44;;;;;;;8.20;2.10;;;8.20;3.60;;;;;;5035452;28;20544;-72
2023/01/05 01:18:09;;;;;;;10.67;2.57;;;8.20;1.00;;;;;;5036086;28;20255;-69
2023/01/05 01:20:36;;;;;;;9.43;2.10;;;8.20;1.00;;;;;;5035392;28;20167;-72
2023/01/05 01:23:03;;;;;;;6.20;2.80;;;8.20;1.00;;;;;;5036013;28;20168;-72
2023/01/05 01:25:29;;;;;;;7.07;3.20;;;8.20;1.00;;;;;;5035084;28;20426;-69
2023/01/05 01:27:55;;;;;;;12.23;2.67;;;8.20;1.00;;;;;;5035809;28;20402;-69
2023/01/05 01:30:21;;;;;;;4.13;2.13;;;8.20;1.00;;;;;;5035884;28;20767;-73
2023/01/05 01:32:47;;;;;;;7.23;2.53;;;8.20;1.00;;;;;;5035671;28;20195;-72
2023/01/05 01:35:12;;;;;;;7.93;2.33;;;8.20;3.50;;;;;;5034991;28;20197;-71
2023/01/05 01:37:38;;;;;;;6.70;2.93;;;8.10;2.50;;;;;;5035101;28;20160;-70
2023/01/05 01:40:06;;;;;;;10.43;3.40;;;8.10;8.80;;;;;;5035649;28;20175;-70
2023/01/05 01:42:32;;;;;;;8.00;2.47;;;8.10;11.40;;;;;;5034380;28;20911;-72
2023/01/05 01:45:00;;;;;;;7.07;2.87;;;8.10;1.00;;;;;;5034756;28;20540;-70
2023/01/05 01:47:38;;;;;;;11.03;2.97;;;8.10;1.00;;;;;;5035374;28;20172;-70
2023/01/05 01:50:35;;;;;;;7.10;3.03;;;8.20;1.00;;;;;;5035441;28;20430;-70
2023/01/05 01:53:07;;;;;;;2.63;2.30;;;8.20;1.00;;;;;;5029688;28;20480;-72
2023/01/05 01:55:34;;;;;;;7.20;2.80;;;8.10;1.00;;;;;;5034316;28;20504;-72
2023/01/05 01:58:05;;;;;;;5.40;2.60;;;8.10;1.00;;;;;;5034890;28;20410;-73
2023/01/05 02:00:30;;;;;;;11.87;2.97;;;8.10;1.00;;;;;;5034392;28;20434;-72
2023/01/05 02:02:56;;;;;;;8.87;2.30;;;8.20;1.00;;;;;;5035167;28;20980;-72
2023/01/05 02:05:30;;;;;;;8.27;3.97;;;8.20;1.00;;;;;;5034350;28;20274;-71
2023/01/05 02:07:56;;;;;;;4.13;1.57;;;8.20;1.00;;;;;;5035063;28;20167;-72
2023/01/05 02:10:52;;;;;;;3.70;1.60;;;8.20;1.00;;;;;;5035187;28;20498;-70
2023/01/05 02:13:18;;;;;;;17.30;2.83;;;8.20;1.00;;;;;;5034916;28;20442;-70
2023/01/05 02:16:07;;;;;;;7.70;2.13;;;8.30;1.00;;;;;;5033547;28;20437;-70
2023/01/05 02:19:03;;;;;;;14.50;3.17;;;8.20;1.00;;;;;;5034993;28;20222;-71
2023/01/05 02:21:56;;;;;;;20.07;3.23;;;8.20;1.00;;;;;;5034878;28;20406;-72
2023/01/05 02:24:38;;;;;;;14.50;3.50;;;8.20;1.00;;;;;;5033891;28;20803;-73
2023/01/05 02:27:16;;;;;;;11.90;3.40;;;8.20;1.00;;;;;;5033573;28;20756;-70
2023/01/05 02:29:50;;;;;;;3.40;2.30;;;8.20;1.00;;;;;;5034696;28;20414;-71
2023/01/05 02:32:34;;;;;;;9.87;2.73;;;8.20;1.00;;;;;;5033963;28;20445;-73
2023/01/05 02:35:06;;;;;;;6.00;2.30;;;8.20;1.00;;;;;;5033927;28;21013;-72
2023/01/05 02:37:44;;;;;;;6.40;2.20;;;8.20;1.00;;;;;;5034586;28;20438;-72
2023/01/05 02:40:20;;;;;;;22.47;2.30;;;8.10;1.00;;;;;;5034514;28;20478;-70
2023/01/05 02:42:50;;;;;;;10.90;2.63;;;8.20;1.00;;;;;;5034375;28;20402;-71
2023/01/05 02:45:16;;;;;;;16.47;2.90;;;8.10;1.00;;;;;;5033638;28;20819;-71
2023/01/05 02:47:43;;;;;;;10.37;2.20;;;8.20;1.00;;;;;;5034411;28;20565;-72
2023/01/05 02:50:18;;;;;;;8.13;2.40;;;8.20;1.00;;;;;;5034252;28;20475;-71
2023/01/05 02:52:55;;;;;;;4.50;2.17;;;8.20;1.00;;;;;;5033641;28;20803;-71
2023/01/05 02:55:35;;;;;;;6.97;1.57;;;8.20;1.00;;;;;;5033501;28;20468;-72
2023/01/05 02:58:21;;;;;;;6.67;2.57;;;8.20;1.00;;;;;;5034141;28;20810;-72
2023/01/05 03:00:52;;;;;;;6.60;3.60;;;8.20;1.00;;;;;;5034147;28;20508;-71
2023/01/05 03:03:34;;;;;;;5.70;2.77;;;8.30;1.00;;;;;;5034054;28;20492;-71
2023/01/05 03:06:08;;;;;;;11.17;2.40;;;8.30;1.00;;;;;;5033121;28;20990;-70
2023/01/05 03:08:39;;;;;;;11.80;2.97;;;8.30;1.00;;;;;;5033374;28;20410;-72
2023/01/05 03:14:14;;;;;;;7.30;2.40;;;8.30;1.00;;;;;;5033790;28;20457;-71
2023/01/05 03:16:42;;;;;;;7.80;1.73;;;8.30;1.00;;;;;;5033142;28;20432;-71
2023/01/05 03:35:58;;;;;;;19.33;2.23;;;8.30;1.00;;;;;;5032844;28;20996;-73
2023/01/05 03:38:36;;;;;;;9.60;2.80;;;8.30;1.00;;;;;;5033410;28;20410;-72
2023/01/05 03:41:07;;;;;;;10.53;2.67;;;8.30;1.00;;;;;;5033143;28;20918;-73
2023/01/05 03:43:35;;;;;;;13.63;3.37;;;8.30;1.00;;;;;;5033124;28;20810;-72
2023/01/05 03:46:07;;;;;;;9.07;2.97;;;8.30;1.00;;;;;;5032578;28;20499;-73
2023/01/05 03:48:33;;;;;;;3.77;2.33;;;8.30;1.00;;;;;;5032257;28;20397;-72
2023/01/05 03:50:59;;;;;;;13.80;2.20;;;8.30;1.00;;;;;;5033343;28;20464;-72
2023/01/05 03:53:24;;;;;;;6.00;2.17;;;8.30;1.00;;;;;;5031812;28;20564;-71
2023/01/05 03:55:50;;;;;;;8.53;2.30;;;8.30;1.00;;;;;;5032538;28;20187;-72
2023/01/05 03:58:16;;;;;;;5.30;2.30;;;8.30;1.00;;;;;;5033145;28;20625;-72
2023/01/05 04:00:41;;;;;;;2.43;2.23;;;8.30;1.00;;;;;;5032372;28;20201;-69
2023/01/05 04:03:09;;;;;;;8.67;2.20;;;8.30;1.00;;;;;;5033254;28;20182;-70
2023/01/05 04:05:35;;;;;;;15.20;4.00;;;8.30;1.00;;;;;;5032284;28;20709;-70
2023/01/05 04:08:01;;;;;;;8.93;2.40;;;8.30;1.00;;;;;;5033093;28;20445;-69
2023/01/05 04:10:26;;;;;;;5.10;2.17;;;8.30;1.00;;;;;;5031790;28;20512;-70
2023/01/05 04:12:52;;;;;;;7.30;2.73;;;8.30;1.00;;;;;;5032803;28;20457;-70
2023/01/05 04:15:18;;;;;;;9.83;2.20;;;8.30;1.00;;;;;;5032278;28;20241;-70
2023/01/05 04:17:43;;;;;;;3.83;2.57;;;8.30;1.00;;;;;;5032523;28;20175;-71
2023/01/05 04:20:10;;;;;;;8.03;2.03;;;8.30;1.00;;;;;;5033064;28;20179;-69
2023/01/05 04:22:35;;;;;;;3.97;2.20;;;8.30;1.00;;;;;;5033491;28;20182;-71
2023/01/05 04:25:01;;;;;;;8.10;2.37;;;8.30;1.00;;;;;;5035299;28;20430;-71
2023/01/05 04:27:27;;;;;;;11.87;1.90;;;8.30;1.00;;;;;;5037015;28;20176;-72
2023/01/05 04:29:53;;;;;;;4.80;2.30;;;8.40;1.00;;;;;;5037020;28;20171;-71
2023/01/05 04:32:18;;;;;;;4.20;2.50;;;8.30;1.00;;;;;;5036843;28;20172;-72
2023/01/05 04:34:44;;;;;;;9.60;2.60;;;8.30;1.00;;;;;;5035104;28;20693;-70
2023/01/05 04:37:10;;;;;;;6.40;1.73;;;8.20;1.00;;;;;;5036278;28;20254;-71
2023/01/05 04:39:35;;;;;;;8.73;2.60;;;8.20;1.00;;;;;;5036793;28;20654;-73
2023/01/05 04:42:01;;;;;;;5.07;2.77;;;8.10;1.00;;;;;;5035722;28;20262;-72
2023/01/05 04:44:27;;;;;;;6.57;2.50;;;8.10;1.00;;;;;;5036085;28;20192;-71
2023/01/05 04:46:52;;;;;;;7.93;2.27;;;8.10;1.00;;;;;;5036522;28;20898;-73
2023/01/05 04:49:18;;;;;;;8.97;2.17;;;8.10;1.00;;;;;;5036542;28;20209;-71
2023/01/05 04:51:44;;;;;;;8.33;2.93;;;8.10;1.00;;;;;;5035638;28;20179;-73
2023/01/05 04:54:09;;;;;;;13.10;2.40;;;8.20;1.00;;;;;;5035917;28;20610;-70
2023/01/05 04:56:35;;;;;;;2.80;2.50;;;8.20;1.00;;;;;;5035733;28;20176;-72
2023/01/05 04:59:01;;;;;;;11.80;3.23;;;8.20;1.00;;;;;;5036408;28;20171;-73
2023/01/05 05:01:26;;;;;;;7.50;2.53;;;8.20;1.00;;;;;;5036379;28;20160;-70
2023/01/05 05:03:52;;;;;;;6.07;2.47;;;8.20;1.00;;;;;;5036336;28;20226;-72
2023/01/05 05:06:18;;;;;;;8.10;3.37;;;8.20;1.00;;;;;;5035671;28;20652;-72
2023/01/05 05:08:44;;;;;;;8.40;2.00;;;8.20;1.00;;;;;;5036107;28;20484;-73
2023/01/05 05:11:09;;;;;;;11.77;2.67;;;8.20;1.00;;;;;;5036137;28;20488;-70
2023/01/05 05:13:35;;;;;;;6.27;2.87;;;8.20;1.00;;;;;;5035699;28;20238;-70
2023/01/05 05:16:01;;;;;;;12.33;2.67;;;8.20;1.00;;;;;;5035334;28;20187;-70
2023/01/05 05:18:27;;;;;;;13.30;3.13;;;8.20;1.00;;;;;;5036584;28;20170;-72
2023/01/05 05:20:53;;;;;;;8.10;2.80;;;8.10;1.00;;;;;;5036056;28;20250;-72
2023/01/05 05:23:19;;;;;;;12.23;2.53;;;8.00;1.00;;;;;;5035794;28;20405;-70
2023/01/05 05:25:48;;;;;;;8.37;2.63;;;8.00;1.00;;;;;;5035310;28;20433;-70
2023/01/05 05:28:13;;;;;;;13.57;3.57;;;7.90;1.00;;;;;;5035915;28;20406;-73
2023/01/05 05:30:39;;;;;;;5.13;2.20;;;7.90;1.00;;;;;;5034832;28;20392;-70
2023/01/05 05:33:04;;;;;;;9.00;2.40;;;7.90;1.00;;;;;;5035345;28;20196;-72
2023/01/05 05:35:31;;;;;;;5.80;1.97;;;7.90;1.00;;;;;;5033499;28;20190;-70
2023/01/05 05:37:57;;;;;;;6.33;3.07;;;7.90;1.00;;;;;;5035648;28;20182;-70
2023/01/05 05:40:25;;;;;;;11.37;3.03;;;8.00;1.00;;;;;;5035844;28;20390;-71
2023/01/05 05:42:50;;;;;;;11.87;3.13;;;8.00;1.00;;;;;;5035640;28;20160;-71
2023/01/05 05:45:16;;;;;;;8.70;2.50;;;8.00;1.00;;;;;;5034703;28;20457;-71
2023/01/05 05:47:42;;;;;;;13.30;2.83;;;8.00;1.00;;;;;;5035639;28;20652;-70
2023/01/05 05:50:08;;;;;;;17.80;2.80;;;8.00;1.00;;;;;;5034972;28;21149;-71
2023/01/05 05:52:34;;;;;;;13.07;3.60;;;8.10;1.00;;;;;;5035295;28;20406;-70
2023/01/05 05:55:00;;;;;;;6.70;2.67;;;8.10;1.00;;;;;;5033378;28;20525;-73
2023/01/05 05:57:26;;;;;;;6.83;2.43;;;8.10;1.00;;;;;;5035211;28;20163;-73
2023/01/05 05:59:51;;;;;;;10.93;2.50;;;8.20;1.00;;;;;;5035292;28;20521;-73
2023/01/05 06:02:18;;;;;;;18.47;3.13;;;8.20;1.00;;;;;;5035297;28;20160;-73
2023/01/05 06:04:44;;;;;;;11.90;3.27;;;8.20;1.00;;;;;;5034484;28;20180;-71
2023/01/05 06:07:10;;;;;;;17.73;2.93;;;8.20;1.00;;;;;;5035204;28;20493;-71
2023/01/05 06:09:35;;;;;;;6.97;3.03;;;8.30;1.00;;;;;;5034641;28;21003;-73
2023/01/05 06:12:01;;;;;;;5.60;2.50;;;8.30;1.00;;;;;;5034762;28;20182;-71
2023/01/05 06:14:27;;;;;;;5.93;3.30;;;8.30;1.00;;;;;;5034334;28;20199;-72
2023/01/05 06:16:52;;;;;;;4.87;2.77;;;8.30;1.00;;;;;;5034959;28;20198;-71
2023/01/05 06:19:18;;;;;;;14.30;4.90;;;8.30;1.00;;;;;;5034895;28;20569;-72
2023/01/05 06:21:44;;;;;;;13.33;2.70;;;8.30;1.00;;;;;;5034712;28;20171;-72
2023/01/05 06:24:09;;;;;;;20.83;5.00;;;8.30;1.00;;;;;;5034386;28;20205;-73
2023/01/05 06:26:35;;;;;;;12.53;2.63;;;8.30;1.00;;;;;;5032948;28;20541;-72
2023/01/05 06:29:01;;;;;;;6.93;2.70;;;8.30;1.00;;;;;;5034466;28;20236;-72
2023/01/05 06:31:27;;;;;;;11.10;2.03;;;8.30;1.00;;;;;;5034646;28;20197;-73
2023/01/05 06:33:52;;;;;;;11.13;3.20;;;8.20;1.00;;;;;;5034381;28;20202;-73
2023/01/05 06:36:18;;;;;;;3.10;1.80;;;8.20;1.00;;;;;;5033823;28;20167;-71
2023/01/05 06:38:44;;;;;;;9.57;2.97;;;8.20;1.00;;;;;;5033186;28;20536;-73
2023/01/05 06:41:10;;;;;;;20.60;3.10;;;8.20;1.00;;;;;;5034571;28;20179;-72
2023/01/05 06:43:35;;;;;;;13.57;3.20;;;8.20;1.00;;;;;;5034436;28;20410;-73
2023/01/05 06:46:01;;;;;;;11.10;3.30;;;8.20;1.00;;;;;;5032926;28;20599;-73
2023/01/05 06:48:27;;;;;;;7.30;2.40;;;8.20;1.00;;;;;;5033928;28;20185;-73
2023/01/05 06:50:53;;;;;;;15.07;2.80;;;8.20;1.00;;;;;;5033915;28;20410;-72
2023/01/05 06:53:18;;;;;;;7.17;1.83;;;8.20;1.00;;;;;;5034239;28;20525;-71
2023/01/05 06:55:45;;;;;;;6.40;2.73;;;8.10;1.00;;;;;;5033556;28;20591;-72
2023/01/05 06:58:10;;;;;;;6.20;2.23;;;8.00;1.00;;;;;;5034132;28;20164;-71
2023/01/05 07:00:36;;;;;;;5.53;1.70;;;7.90;1.00;;;;;;5034056;28;20978;-73
2023/01/05 07:03:02;;;;;;;6.60;2.03;;;7.80;1.00;;;;;;5034285;28;20186;-71
2023/01/05 07:05:28;;;;;;;4.37;1.90;;;7.70;99.90;;;;;;5033002;28;20830;-72
2023/01/05 07:07:53;;;;;;;4.70;1.97;;;7.60;99.90;;;;;;5033677;28;20171;-72
2023/01/05 07:10:19;;;;;;;8.30;1.77;;;7.50;99.90;;;;;;5033957;28;20418;-71
2023/01/05 07:12:45;;;;;;;4.20;1.90;;;7.40;99.90;;;;;;5033913;28;20195;-72
2023/01/05 07:15:11;;;;;;;3.70;2.33;;;7.20;99.90;;;;;;5032258;28;20195;-72
2023/01/05 07:17:36;;;;;;;2.50;1.63;;;7.20;99.90;;;;;;5033886;28;20160;-73
2023/01/05 07:20:04;;;;;;;2.30;1.43;;;7.10;99.90;;;;;;5033716;28;20183;-71
2023/01/05 07:22:29;;;;;;;3.43;1.60;;;7.00;99.90;;;;;;5033778;28;20175;-71
2023/01/05 07:24:57;;;;;;;1.43;1.33;;;6.90;99.90;;;;;;5032406;28;20480;-73
2023/01/05 07:27:23;;;;;;;1.93;1.60;;;6.80;99.90;;;;;;5033687;28;20162;-72
2023/01/05 07:29:49;;;;;;;3.60;3.30;;;6.60;99.90;;;;;;5033889;28;20433;-72
2023/01/05 07:32:14;;;;;;;5.07;1.60;;;6.50;99.90;;;;;;5033484;28;20888;-72
2023/01/05 07:34:40;;;;;;;1.80;1.70;;;6.30;99.90;;;;;;5032694;28;20226;-73
2023/01/05 07:37:06;;;;;;;4.83;2.50;;;6.20;99.90;;;;;;5033784;28;20622;-72
2023/01/05 07:39:31;;;;;;;4.40;1.60;;;6.20;99.90;;;;;;5033484;28;20171;-74
2023/01/05 07:41:57;;;;;;;1.93;1.57;;;6.10;99.90;;;;;;5032860;28;20525;-73
2023/01/05 07:44:23;;;;;;;1.67;1.57;;;6.10;99.90;;;;;;5032660;28;20680;-74
2023/01/05 07:46:49;;;;;;;3.00;1.70;;;6.00;99.90;;;;;;5033309;28;20209;-74
2023/01/05 07:49:14;;;;;;;1.70;1.60;;;6.00;99.90;;;;;;5033236;28;20174;-73
2023/01/05 07:51:40;;;;;;;3.33;1.50;;;6.00;99.90;;;;;;5033263;28;20169;-74
2023/01/05 07:54:06;;;;;;;3.43;2.10;;;5.90;99.90;;;;;;5032957;28;20215;-72
2023/01/05 07:56:31;;;;;;;2.00;1.50;;;5.80;99.90;;;;;;5031418;28;20629;-73
2023/01/05 07:58:58;;;;;;;1.87;1.50;;;5.80;99.90;;;;;;5032612;28;20167;-74
2023/01/05 08:01:24;;;;;;;2.90;1.83;;;5.90;99.90;;;;;;5032977;28;20253;-73
2023/01/05 08:03:50;;;;;;;2.03;1.50;;;5.80;99.90;;;;;;5032792;28;20437;-74
2023/01/05 08:06:18;;;;;;;3.33;1.97;;;5.80;99.90;;;;;;5032493;28;20170;-73
2023/01/05 08:08:44;;;;;;;2.80;2.37;;;5.70;99.90;;;;;;5033004;28;20248;-74
2023/01/05 08:11:15;;;;;;;4.80;2.00;;;5.60;99.90;;;;;;5033113;28;20500;-73
2023/01/05 08:14:01;;;;;;;2.03;1.43;;;5.60;99.90;;;;;;5033045;28;20447;-73
2023/01/05 08:16:31;;;;;;;3.43;2.00;;;5.60;99.90;;;;;;5032531;28;20403;-74
2023/01/05 08:18:58;;;;;;;1.70;1.60;;;5.50;99.90;;;;;;5032489;28;20480;-74
2023/01/05 08:21:24;;;;;;;1.73;1.63;;;5.50;99.90;;;;;;5031899;28;20429;-74
2023/01/05 08:23:52;;;;;;;8.13;2.20;;;5.40;99.90;;;;;;5032986;28;20952;-72
2023/01/05 08:26:20;;;;;;;5.20;2.00;;;5.40;99.90;;;;;;5032332;28;20400;-74
2023/01/05 08:28:46;;;;;;;1.83;1.73;;;5.40;99.90;;;;;;5032756;28;20406;-74
2023/01/05 08:31:15;;;;;;;1.77;1.67;;;5.50;99.90;;;;;;5032985;28;20899;-72
2023/01/05 08:33:41;;;;;;;1.60;1.50;;;5.40;99.90;;;;;;5032882;28;20656;-74
2023/01/05 08:36:19;;;;;;;1.93;1.73;;;5.30;99.90;;;;;;5032235;28;20445;-73
2023/01/05 08:38:48;;;;;;;1.73;1.63;;;5.20;99.90;;;;;;5032055;28;20396;-73
2023/01/05 08:41:23;;;;;;;1.70;1.60;;;5.10;99.90;;;;;;5032789;28;20751;-73
2023/01/05 08:43:54;;;;;;;1.77;1.67;;;5.10;99.90;;;;;;5032792;28;20402;-73
2023/01/05 08:46:21;;;;;;;2.23;1.50;;;5.10;99.90;;;;;;5031124;28;20438;-73
2023/01/05 08:48:49;;;;;;;3.70;1.40;;;5.10;99.90;;;;;;5032595;28;20955;-73
2023/01/05 08:51:15;;;;;;;3.03;1.70;;;5.00;99.90;;;;;;5032698;28;20482;-72
2023/01/05 08:53:41;;;;;;;1.90;1.80;;;5.00;99.90;;;;;;5031371;28;20854;-72
2023/01/05 08:56:08;;;;;;;1.50;1.40;;;5.00;99.90;;;;;;5032011;28;20395;-73
2023/01/05 08:58:36;;;;;;;1.43;1.10;;;5.00;99.90;;;;;;5032051;28;20841;-73
2023/01/05 09:01:12;;;;;;;3.83;1.90;;;5.10;99.90;;;;;;5032591;28;20452;-72
2023/01/05 09:03:38;;;;;;;1.57;1.47;;;5.10;99.90;;;;;;5032688;28;20432;-72
2023/01/05 09:06:05;;;;;;;4.60;1.37;;;5.10;99.90;;;;;;5031920;28;20486;-73
2023/01/05 09:08:32;;;;;;;6.93;2.07;;;5.10;99.90;;;;;;5032970;28;20406;-73
2023/01/05 09:11:08;;;;;;;2.40;2.20;;;5.20;99.90;;;;;;5036212;28;20407;-73
2023/01/05 09:13:34;;;;;;;4.60;1.97;;;5.20;99.90;;;;;;5036142;28;20445;-73
2023/01/05 09:16:14;;;;;;;3.73;1.60;;;5.30;99.90;;;;;;5035045;28;20901;-72
2023/01/05 09:18:41;;;;;;;3.40;2.07;;;5.40;99.90;;;;;;5035823;28;20428;-73
2023/01/05 09:21:08;;;;;;;2.90;1.80;;;5.40;99.90;;;;;;5036039;28;20790;-72
2023/01/05 09:23:35;;;;;;;2.50;1.80;;;5.40;99.90;;;;;;5034749;28;20414;-72
2023/01/05 09:26:03;;;;;;;5.60;3.47;;;5.40;99.90;;;;;;5035244;28;20455;-72
2023/01/05 09:28:29;;;;;;;5.83;2.37;;;5.40;99.90;;;;;;5036042;28;20502;-73
2023/01/05 09:30:55;;;;;;;4.27;1.90;;;5.50;99.90;;;;;;5034636;28;20463;-73
2023/01/05 09:33:21;;;;;;;2.70;1.60;;;5.50;99.90;;;;;;5035633;28;20199;-73
2023/01/05 09:35:54;;;;;;;5.63;1.90;;;5.50;99.90;;;;;;5034962;28;20194;-72
2023/01/05 09:38:21;;;;;;;3.53;1.60;;;5.50;99.90;;;;;;5035507;28;20166;-74
2023/01/05 09:40:48;;;;;;;2.27;1.80;;;5.60;99.90;;;;;;5035708;28;20400;-74
2023/01/05 09:43:28;;;;;;;2.80;1.90;;;5.60;99.90;;;;;;5034449;28;20472;-73
2023/01/05 09:45:55;;;;;;;3.93;2.00;;;5.60;99.90;;;;;;5034630;28;20449;-73
2023/01/05 09:48:22;;;;;;;3.10;1.93;;;5.70;99.90;;;;;;5034276;28;20505;-72
2023/01/05 09:50:49;;;;;;;4.13;1.83;;;5.70;99.90;;;;;;5035562;28;20408;-73
2023/01/05 09:53:27;;;;;;;3.90;1.57;;;5.70;99.90;;;;;;5035398;28;20973;-73
2023/01/05 09:55:53;;;;;;;2.20;1.83;;;5.80;99.90;;;;;;5034267;28;20417;-72
2023/01/05 09:58:25;;;;;;;3.23;2.10;;;5.90;99.90;;;;;;5035402;28;20409;-73
2023/01/05 10:01:15;;;;;;;3.53;1.80;;;5.90;99.90;;;;;;5035318;28;20400;-72
2023/01/05 10:03:53;;;;;;;3.67;1.80;;;5.90;99.90;;;;;;5034052;28;20911;-74
2023/01/05 10:06:20;;;;;;;2.50;2.30;;;6.00;99.90;;;;;;5034591;28;20414;-72
2023/01/05 10:08:50;;;;;;;2.17;1.97;;;6.00;99.90;;;;;;5033881;28;20409;-73
2023/01/05 10:14:29;;;;;;;2.67;2.40;;;5.90;99.90;;;;;;5033802;28;20817;-72
2023/01/05 10:16:55;;;;;;;3.20;1.80;;;5.80;99.90;;;;;;5035044;28;20421;-72
2023/01/05 10:19:21;;;;;;;4.53;1.83;;;5.90;99.90;;;;;;5034902;28;20956;-72
2023/01/05 10:21:49;;;;;;;6.00;2.00;;;5.90;99.90;;;;;;5034318;28;20468;-73
2023/01/05 10:24:23;;;;;;;3.17;1.83;;;5.90;99.90;;;;;;5034684;28;20480;-71
2023/01/05 10:27:24;;;;;;;3.23;2.73;;;6.00;99.90;;;;;;5033556;28;20410;-71
2023/01/05 10:30:12;;;;;;;3.70;2.07;;;6.00;99.90;;;;;;5033063;28;20426;-70
2023/01/05 10:32:51;;;;;;;10.90;2.70;;;6.10;99.90;;;;;;5033182;28;20424;-71
2023/01/05 10:35:19;;;;;;;2.23;2.03;;;6.10;99.90;;;;;;5034008;28;20507;-72
2023/01/05 10:38:23;;;;;;;7.33;1.80;;;6.10;99.90;;;;;;5034594;28;20398;-73
2023/01/05 10:41:13;;;;;;;2.67;1.90;;;6.20;99.90;;;;;;5034257;28;20782;-72
2023/01/05 10:43:54;;;;;;;2.70;2.30;;;6.10;99.90;;;;;;5033498;28;20514;-72
2023/01/05 10:46:20;;;;;;;3.43;2.30;;;6.20;99.90;;;;;;5033764;28;20426;-73
2023/01/05 10:48:46;;;;;;;5.00;2.27;;;6.20;99.90;;;;;;5033843;28;20760;-71
2023/01/05 10:51:12;;;;;;;7.13;2.23;;;6.20;99.90;;;;;;5034367;28;20417;-70
2023/01/05 10:53:41;;;;;;;10.03;2.10;;;6.20;99.90;;;;;;5034152;28;20446;-71
2023/01/05 10:56:10;;;;;;;3.90;1.97;;;6.40;99.90;;;;;;5033602;28;20501;-72
2023/01/05 10:58:38;;;;;;;2.03;1.90;;;6.30;99.90;;;;;;5034257;28;20402;-71
2023/01/05 11:01:26;;;;;;;2.53;2.00;;;6.30;99.90;;;;;;5034222;28;20397;-72
2023/01/05 11:04:01;;;;;;;2.70;2.33;;;6.40;99.90;;;;;;5033900;28;20422;-71
2023/01/05 11:06:29;;;;;;;4.27;1.70;;;6.50;99.90;;;;;;5033642;28;20908;-73
2023/01/05 11:09:16;;;;;;;2.50;2.13;;;6.40;99.90;;;;;;5033428;28;20410;-71
2023/01/05 11:11:51;;;;;;;1.60;1.50;;;6.40;99.90;;;;;;5033979;28;20410;-73
2023/01/05 11:14:17;;;;;;;4.43;2.57;;;6.50;99.90;;;;;;5033366;28;20460;-71
2023/01/05 11:16:48;;;;;;;1.70;1.60;;;6.50;99.90;;;;;;5032912;28;20421;-73
2023/01/05 11:19:17;;;;;;;2.30;2.10;;;6.50;99.90;;;;;;5033905;28;20247;-71
2023/01/05 11:21:44;;;;;;;3.20;1.73;;;6.50;99.90;;;;;;5033789;28;20468;-70
2023/01/05 11:24:22;;;;;;;2.83;1.80;;;6.40;99.90;;;;;;5032108;28;20438;-73
2023/01/05 11:26:50;;;;;;;4.60;1.90;;;6.50;99.90;;;;;;5032179;28;20456;-73
2023/01/05 11:29:17;;;;;;;3.30;2.00;;;6.50;99.90;;;;;;5033680;28;20412;-71
2023/01/05 11:32:02;;;;;;;4.60;1.60;;;6.50;99.90;;;;;;5033791;28;20894;-70
2023/01/05 11:34:47;;;;;;;2.03;1.83;;;6.60;99.90;;;;;;5032763;28;20458;-73
2023/01/05 11:37:23;;;;;;;4.40;1.70;;;6.70;99.90;;;;;;5033613;28;20434;-71
2023/01/05 11:40:01;;;;;;;2.73;1.97;;;6.80;99.90;;;;;;5033580;28;20418;-71
2023/01/05 11:42:35;;;;;;;2.50;1.80;;;6.80;99.90;;;;;;5032126;28;20529;-72
2023/01/05 11:45:06;;;;;;;2.40;2.03;;;6.80;99.90;;;;;;5032339;28;20473;-73
2023/01/05 11:47:44;;;;;;;6.60;1.93;;;6.80;99.90;;;;;;5033315;28;20421;-70
2023/01/05 11:50:24;;;;;;;5.10;2.00;;;6.70;99.90;;;;;;5033343;28;20903;-70
2023/01/05 11:52:58;;;;;;;5.20;2.37;;;6.70;99.90;;;;;;5033241;28;20887;-73
2023/01/05 11:55:32;;;;;;;5.03;1.97;;;6.70;99.90;;;;;;5032578;28;20430;-73
2023/01/05 11:58:10;;;;;;;5.37;2.87;;;6.70;99.90;;;;;;5033230;28;20791;-73
2023/01/05 12:01:15;;;;;;;4.20;1.73;;;6.70;99.90;;;;;;5033089;28;20459;-73
2023/01/05 12:03:53;;;;;;;1.97;1.70;;;6.70;99.90;;;;;;5031921;28;20517;-70
2023/01/05 12:06:57;;;;;;;3.93;1.83;;;6.70;99.90;;;;;;5032566;28;20417;-73
2023/01/05 12:09:30;;;;;;;3.90;1.80;;;6.70;99.90;;;;;;5030618;28;20779;-70
2023/01/05 12:12:17;;;;;;;2.90;1.70;;;6.80;99.90;;;;;;5031759;28;20401;-71
2023/01/05 12:15:04;;;;;;;2.20;2.00;;;6.90;99.90;;;;;;5032156;28;20461;-69
2023/01/05 12:17:44;;;;;;;4.00;1.70;;;7.10;99.90;;;;;;5032981;28;20695;-74
2023/01/05 12:20:21;;;;;;;8.10;2.20;;;7.00;99.90;;;;;;5031567;28;20414;-71
2023/01/05 12:23:26;;;;;;;2.80;1.60;;;7.10;99.90;;;;;;5032347;28;20399;-71
2023/01/05 12:26:12;;;;;;;2.30;1.70;;;7.10;99.90;;;;;;5032310;28;20422;-72
2023/01/05 12:29:21;;;;;;;1.80;1.60;;;7.00;99.90;;;;;;5031810;28;20425;-72
2023/01/05 12:31:55;;;;;;;4.93;2.30;;;7.00;99.90;;;;;;5022120;28;20414;-71
2023/01/05 12:34:30;;;;;;;3.87;1.70;;;6.90;99.90;;;;;;5030915;28;20464;-72
2023/01/05 12:36:56;;;;;;;2.33;1.60;;;6.80;99.90;;;;;;5032770;28;20421;-72
2023/01/05 12:39:43;;;;;;;4.97;2.00;;;6.80;99.90;;;;;;5032749;28;20401;-72
2023/01/05 12:42:35;;;;;;;4.23;1.50;;;6.80;99.90;;;;;;5032419;28;20624;-72
2023/01/05 12:45:30;;;;;;;1.83;1.73;;;6.70;99.90;;;;;;5034875;28;20481;-72
2023/01/05 12:48:13;;;;;;;2.60;2.40;;;6.70;99.90;;;;;;5036720;28;20421;-72
2023/01/05 12:50:46;;;;;;;4.00;1.70;;;6.70;99.90;;;;;;5036596;28;20414;-71
2023/01/05 12:53:34;;;;;;;1.90;1.80;;;6.70;99.90;;;;;;5035485;28;20465;-72
2023/01/05 12:56:07;;;;;;;8.47;1.77;;;6.70;99.90;;;;;;5034870;28;20429;-71
2023/01/05 12:58:39;;;;;;;11.03;2.77;;;6.70;99.90;;;;;;5036606;28;20410;-72
2023/01/05 13:01:15;;;;;;;5.60;2.47;;;6.50;99.90;;;;;;5035913;28;20398;-71
2023/01/05 13:03:50;;;;;;;1.97;1.60;;;6.60;99.90;;;;;;5036463;28;20417;-72
2023/01/05 13:06:19;;;;;;;1.60;1.50;;;6.50;99.90;;;;;;5035703;28;20413;-73
2023/01/05 13:09:05;;;;;;;3.70;1.70;;;6.50;99.90;;;;;;5036149;28;20409;-73
2023/01/05 13:11:45;;;;;;;1.73;1.63;;;6.50;99.90;;;;;;5036157;28;20468;-71
2023/01/05 13:14:23;;;;;;;3.00;1.83;;;6.50;99.90;;;;;;5035809;28;20484;-72
2023/01/05 13:17:08;;;;;;;2.53;2.33;;;6.50;99.90;;;;;;5035151;28;20800;-72
2023/01/05 13:19:47;;;;;;;5.60;2.70;;;6.60;99.90;;;;;;5035915;28;20476;-72
2023/01/05 13:22:23;;;;;;;2.60;2.40;;;6.60;99.90;;;;;;5035734;28;20437;-72
2023/01/05 13:25:26;;;;;;;2.70;1.90;;;6.70;99.90;;;;;;5035146;28;20478;-72
2023/01/05 13:27:52;;;;;;;8.20;1.83;;;6.60;99.90;;;;;;5035442;28;20491;-72
2023/01/05 13:30:30;;;;;;;4.60;2.07;;;6.60;99.90;;;;;;5035957;28;20899;-72
2023/01/05 13:33:05;;;;;;;4.10;1.77;;;6.70;99.90;;;;;;5034756;28;20171;-72
2023/01/05 13:35:55;;;;;;;3.47;1.90;;;6.70;99.90;;;;;;5034060;28;20492;-72
2023/01/05 13:38:32;;;;;;;2.30;2.10;;;6.60;99.90;;;;;;5035712;28;20536;-71
2023/01/05 13:41:11;;;;;;;3.50;2.13;;;6.60;99.90;;;;;;5035394;28;20406;-72
2023/01/05 13:43:58;;;;;;;4.50;1.77;;;6.50;99.90;;;;;;5035705;28;20766;-72
2023/01/05 13:47:01;;;;;;;2.60;1.50;;;6.40;99.90;;;;;;5033710;28;20438;-73
2023/01/05 13:50:00;;;;;;;2.23;2.00;;;6.40;99.90;;;;;;5035190;28;20452;-73
2023/01/05 13:52:48;;;;;;;3.40;1.60;;;6.40;99.90;;;;;;5035603;28;20406;-70
2023/01/05 13:55:17;;;;;;;5.50;1.80;;;6.30;99.90;;;;;;5033046;28;20466;-71
2023/01/05 13:57:44;;;;;;;2.90;1.93;;;6.30;99.90;;;;;;5035380;28;20413;-73